Time;durP1;ratioP1;P1;durP2;ratioP2;P2;SDS_P1;SDS_P2;PMS_P1;PMS_P2;Temp;Humidity;BMP_temperature;BMP_pressure;BME280_temperature;BME280_humidity;BME280_pressure;Samples;Min_cycle;Max_cycle;Signal;HPM_P1;HPM_P2
2023/04/01 00:01:18;;;;;;;2.43;1.70;;;;;;;;;;5011592;28;20325;-54
2023/04/01 00:03:44;;;;;;;3.47;1.77;;;;;;;;;;5005980;28;20506;-55
2023/04/01 00:06:13;;;;;;;2.07;1.67;;;;;;;;;;5003998;28;20190;-55
2023/04/01 00:08:39;;;;;;;1.77;1.60;;;;;;;;;;5005059;28;20213;-55
2023/04/01 00:11:05;;;;;;;3.37;1.67;;;;;;;;;;5007563;28;20206;-55
2023/04/01 00:13:32;;;;;;;2.07;1.70;;;;;;;;;;5012941;28;20179;-55
2023/04/01 00:15:58;;;;;;;2.13;1.60;;;;;;;;;;5005761;28;20634;-54
2023/04/01 00:18:24;;;;;;;1.87;1.77;;;;;;;;;;5014166;28;20174;-55
2023/04/01 00:20:51;;;;;;;2.47;1.60;;;;;;;;;;5005208;28;20321;-55
2023/04/01 00:23:18;;;;;;;2.23;1.40;;;;;;;;;;5010399;28;20204;-55
2023/04/01 00:25:45;;;;;;;1.50;1.40;;;;;;;;;;5007787;28;20183;-55
2023/04/01 00:28:11;;;;;;;1.87;1.30;;;;;;;;;;5007134;28;20662;-55
2023/04/01 00:30:37;;;;;;;1.50;1.40;;;;;;;;;;5006193;28;20269;-55
2023/04/01 00:33:04;;;;;;;1.77;1.40;;;;;;;;;;5006810;28;20274;-55
2023/04/01 00:35:32;;;;;;;1.83;1.40;;;;;;;;;;5005965;28;20373;-55
2023/04/01 00:37:58;;;;;;;2.13;1.50;;;;;;;;;;5012608;28;20188;-56
2023/04/01 00:40:34;;;;;;;3.17;1.50;;;;;;;;;;5011579;28;20543;-55
2023/04/01 00:43:00;;;;;;;2.10;1.90;;;;;;;;;;5008741;28;20266;-55
2023/04/01 00:45:30;;;;;;;1.57;1.43;;;;;;;;;;5007364;28;20183;-55
2023/04/01 00:47:56;;;;;;;1.73;1.53;;;;;;;;;;5007197;28;20646;-55
2023/04/01 00:50:25;;;;;;;2.37;1.53;;;;;;;;;;5007084;28;20202;-55
2023/04/01 00:52:51;;;;;;;2.03;1.40;;;;;;;;;;5007679;28;20179;-55
2023/04/01 00:55:19;;;;;;;1.30;1.20;;;;;;;;;;5009905;28;20586;-55
2023/04/01 00:57:46;;;;;;;2.90;1.30;;;;;;;;;;5006734;28;21722;-55
2023/04/01 01:00:14;;;;;;;1.43;1.13;;;;;;;;;;5007066;28;20185;-55
2023/04/01 01:02:42;;;;;;;1.83;1.73;;;;;;;;;;5004885;28;20716;-55
2023/04/01 01:05:08;;;;;;;1.83;1.30;;;;;;;;;;5007110;28;20229;-55
2023/04/01 01:07:40;;;;;;;3.93;1.57;;;;;;;;;;5009561;28;20173;-55
2023/04/01 01:10:17;;;;;;;1.27;1.13;;;;;;;;;;5007578;28;20688;-55
2023/04/01 01:12:53;;;;;;;1.60;1.50;;;;;;;;;;5008943;28;20685;-55
2023/04/01 01:15:25;;;;;;;1.53;1.43;;;;;;;;;;5005167;28;20273;-55
2023/04/01 01:18:05;;;;;;;1.50;1.37;;;;;;;;;;5009607;28;20626;-55
2023/04/01 01:20:37;;;;;;;2.30;1.37;;;;;;;;;;5008952;28;20225;-55
2023/04/01 01:23:22;;;;;;;2.20;1.30;;;;;;;;;;5001289;28;20183;-55
2023/04/01 01:25:48;;;;;;;2.23;1.50;;;;;;;;;;5004764;28;20201;-55
2023/04/01 01:28:41;;;;;;;2.20;1.33;;;;;;;;;;5005645;28;20179;-55
2023/04/01 01:31:26;;;;;;;1.67;1.40;;;;;;;;;;5006432;28;20589;-56
2023/04/01 01:34:01;;;;;;;1.63;1.40;;;;;;;;;;5001263;28;20204;-55
2023/04/01 01:36:29;;;;;;;1.57;1.20;;;;;;;;;;5004046;28;20281;-55
2023/04/01 01:38:56;;;;;;;2.57;1.60;;;;;;;;;;5002711;28;20181;-55
2023/04/01 01:41:24;;;;;;;1.50;1.10;;;;;;;;;;5008158;28;20269;-55
2023/04/01 01:43:52;;;;;;;1.83;1.30;;;;;;;;;;5007279;28;20266;-56
2023/04/01 01:46:20;;;;;;;1.57;1.30;;;;;;;;;;5006184;28;20178;-55
2023/04/01 01:48:47;;;;;;;1.50;1.40;;;;;;;;;;5009984;28;20237;-55
2023/04/01 01:51:13;;;;;;;1.40;1.30;;;;;;;;;;5003582;28;20235;-56
2023/04/01 01:53:39;;;;;;;1.20;1.20;;;;;;;;;;4999331;28;20600;-55
2023/04/01 01:56:05;;;;;;;1.57;1.40;;;;;;;;;;5007460;28;20249;-55
2023/04/01 01:58:40;;;;;;;1.60;1.50;;;;;;;;;;5006669;28;20657;-56
2023/04/01 02:01:07;;;;;;;1.50;1.40;;;;;;;;;;4998461;28;20181;-56
2023/04/01 02:03:37;;;;;;;1.57;1.47;;;;;;;;;;5002171;28;20710;-56
2023/04/01 02:06:04;;;;;;;1.50;1.40;;;;;;;;;;5006136;28;20180;-56
2023/04/01 02:08:47;;;;;;;1.47;1.37;;;;;;;;;;5005441;28;20605;-56
2023/04/01 02:11:15;;;;;;;1.90;1.80;;;;;;;;;;5005538;28;20190;-56
2023/04/01 02:13:53;;;;;;;1.60;1.50;;;;;;;;;;5006546;28;20190;-56
2023/04/01 02:16:31;;;;;;;1.20;1.10;;;;;;;;;;5004478;28;20162;-56
2023/04/01 02:18:58;;;;;;;1.40;1.30;;;;;;;;;;5009031;28;21013;-56
2023/04/01 02:21:27;;;;;;;2.33;1.47;;;;;;;;;;5013980;28;20230;-56
2023/04/01 02:23:54;;;;;;;1.40;1.30;;;;;;;;;;5006857;28;20182;-56
2023/04/01 02:26:20;;;;;;;1.70;1.60;;;;;;;;;;5007511;28;20203;-56
2023/04/01 02:28:46;;;;;;;1.27;1.27;;;;;;;;;;5008174;28;20553;-56
2023/04/01 02:31:13;;;;;;;2.00;1.40;;;;;;;;;;5009605;28;20178;-55
2023/04/01 02:33:39;;;;;;;1.30;1.20;;;;;;;;;;5007726;28;21133;-56
2023/04/01 02:36:06;;;;;;;1.60;1.17;;;;;;;;;;5009298;28;20265;-56
2023/04/01 02:38:33;;;;;;;1.50;1.30;;;;;;;;;;5008092;28;20610;-56
2023/04/01 02:41:00;;;;;;;1.80;1.57;;;;;;;;;;5017664;28;20210;-57
2023/04/01 02:43:27;;;;;;;1.17;1.17;;;;;;;;;;5014218;28;20217;-57
2023/04/01 02:45:54;;;;;;;1.17;1.13;;;;;;;;;;5007076;28;20215;-57
2023/04/01 02:48:20;;;;;;;1.73;1.63;;;;;;;;;;5011012;28;20187;-57
2023/04/01 02:50:46;;;;;;;1.70;1.60;;;;;;;;;;5009646;28;20195;-57
2023/04/01 02:53:12;;;;;;;1.40;1.30;;;;;;;;;;5009395;28;20209;-56
2023/04/01 02:55:39;;;;;;;1.33;1.23;;;;;;;;;;5010376;28;20529;-56
2023/04/01 02:58:05;;;;;;;1.50;1.40;;;;;;;;;;5001066;28;20183;-56
2023/04/01 03:00:31;;;;;;;1.33;1.23;;;;;;;;;;5006516;28;20260;-56
2023/04/01 03:02:57;;;;;;;2.67;1.30;;;;;;;;;;5009585;28;20228;-56
2023/04/01 03:05:23;;;;;;;1.70;1.20;;;;;;;;;;5006902;28;20209;-56
2023/04/01 03:07:49;;;;;;;1.20;1.20;;;;;;;;;;5009490;28;20194;-57
2023/04/01 03:10:15;;;;;;;1.40;1.30;;;;;;;;;;5006861;28;20709;-56
2023/04/01 03:12:41;;;;;;;1.50;1.40;;;;;;;;;;5020597;28;20207;-56
2023/04/01 03:15:10;;;;;;;1.57;1.47;;;;;;;;;;5011059;28;20197;-56
2023/04/01 03:17:36;;;;;;;1.20;1.10;;;;;;;;;;5013058;28;20190;-56
2023/04/01 03:20:04;;;;;;;3.03;1.20;;;;;;;;;;5004663;28;20197;-56
2023/04/01 03:22:30;;;;;;;1.50;1.30;;;;;;;;;;5009458;28;20197;-56
2023/04/01 03:24:57;;;;;;;1.23;1.20;;;;;;;;;;5007100;28;20189;-56
2023/04/01 03:27:23;;;;;;;1.60;1.50;;;;;;;;;;5009340;28;20205;-56
2023/04/01 03:29:49;;;;;;;1.33;1.27;;;;;;;;;;5007369;28;20190;-56
2023/04/01 03:32:15;;;;;;;1.77;1.67;;;;;;;;;;5012628;28;20174;-56
2023/04/01 03:34:41;;;;;;;1.07;1.07;;;;;;;;;;5011531;28;20203;-56
2023/04/01 03:37:07;;;;;;;1.00;1.00;;;;;;;;;;5007296;28;20661;-56
2023/04/01 03:39:34;;;;;;;1.40;1.33;;;;;;;;;;5007577;28;20216;-56
2023/04/01 03:42:00;;;;;;;1.53;1.43;;;;;;;;;;5014946;28;20260;-56
2023/04/01 03:44:26;;;;;;;1.30;1.20;;;;;;;;;;5008194;28;20704;-56
2023/04/01 03:46:52;;;;;;;1.40;1.30;;;;;;;;;;5007134;28;20268;-56
2023/04/01 03:49:18;;;;;;;1.73;1.30;;;;;;;;;;5013196;28;20216;-56
2023/04/01 03:51:45;;;;;;;1.33;1.23;;;;;;;;;;5013011;28;20186;-56
2023/04/01 03:54:11;;;;;;;1.20;1.20;;;;;;;;;;5007170;28;20182;-56
2023/04/01 03:56:38;;;;;;;1.40;1.30;;;;;;;;;;5010802;28;20231;-56
2023/04/01 03:59:05;;;;;;;1.00;1.00;;;;;;;;;;5011581;28;20256;-56
2023/04/01 04:01:31;;;;;;;1.73;1.20;;;;;;;;;;5010534;28;20183;-56
2023/04/01 04:03:57;;;;;;;1.10;1.10;;;;;;;;;;5009826;28;20186;-56
2023/04/01 04:06:24;;;;;;;1.30;1.20;;;;;;;;;;5012120;28;20593;-56
2023/04/01 04:08:50;;;;;;;1.10;1.00;;;;;;;;;;5005406;28;20689;-56
2023/04/01 04:11:16;;;;;;;1.40;1.30;;;;;;;;;;5013985;28;20218;-57
2023/04/01 04:13:43;;;;;;;1.10;1.10;;;;;;;;;;5010042;28;20270;-56
2023/04/01 04:16:09;;;;;;;1.60;1.50;;;;;;;;;;5009674;28;20171;-56
2023/04/01 04:18:36;;;;;;;1.10;1.10;;;;;;;;;;5009514;28;20178;-56
2023/04/01 04:21:03;;;;;;;1.10;1.10;;;;;;;;;;5004732;28;20620;-56
2023/04/01 04:23:30;;;;;;;1.20;1.20;;;;;;;;;;5005582;28;20585;-55
2023/04/01 04:25:56;;;;;;;0.93;0.93;;;;;;;;;;5008213;28;20193;-56
2023/04/01 04:28:22;;;;;;;1.30;1.10;;;;;;;;;;5007554;28;20189;-57
2023/04/01 04:30:48;;;;;;;1.20;1.20;;;;;;;;;;5009065;28;20185;-56
2023/04/01 04:33:14;;;;;;;2.00;1.90;;;;;;;;;;5007729;28;20261;-56
2023/04/01 04:35:40;;;;;;;1.50;1.37;;;;;;;;;;5006454;28;20182;-56
2023/04/01 04:38:06;;;;;;;1.40;1.20;;;;;;;;;;5007269;28;20619;-56
2023/04/01 04:40:32;;;;;;;1.20;1.20;;;;;;;;;;5004631;28;20182;-56
2023/04/01 04:42:58;;;;;;;1.50;1.40;;;;;;;;;;5012712;28;20182;-56
2023/04/01 04:45:27;;;;;;;2.00;1.20;;;;;;;;;;4999636;28;20186;-55
2023/04/01 04:47:53;;;;;;;1.40;1.30;;;;;;;;;;5005807;28;20190;-56
2023/04/01 04:50:19;;;;;;;2.83;1.30;;;;;;;;;;5007497;28;20214;-55
2023/04/01 04:52:45;;;;;;;1.87;1.43;;;;;;;;;;5009317;28;20205;-56
2023/04/01 04:55:11;;;;;;;1.03;1.03;;;;;;;;;;5006639;28;20547;-56
2023/04/01 04:57:37;;;;;;;1.40;1.30;;;;;;;;;;5014723;28;20182;-56
2023/04/01 05:00:04;;;;;;;1.07;1.07;;;;;;;;;;5005188;28;20198;-55
2023/04/01 05:02:30;;;;;;;1.83;1.40;;;;;;;;;;5008219;28;20190;-56
2023/04/01 05:04:56;;;;;;;1.10;1.10;;;;;;;;;;5007936;28;20268;-56
2023/04/01 05:07:22;;;;;;;0.90;0.90;;;;;;;;;;5011452;28;20187;-56
2023/04/01 05:09:48;;;;;;;1.40;1.30;;;;;;;;;;5004316;28;20221;-56
2023/04/01 05:12:14;;;;;;;1.20;1.20;;;;;;;;;;5005530;28;20670;-56
2023/04/01 05:14:40;;;;;;;1.27;1.17;;;;;;;;;;5008833;28;20578;-56
2023/04/01 05:17:10;;;;;;;1.10;1.10;;;;;;;;;;5015857;28;20174;-56
2023/04/01 05:19:36;;;;;;;1.60;1.40;;;;;;;;;;5008019;28;20184;-57
2023/04/01 05:22:02;;;;;;;1.20;1.20;;;;;;;;;;5010286;28;20284;-56
2023/04/01 05:24:28;;;;;;;1.20;1.20;;;;;;;;;;5007998;28;20269;-56
2023/04/01 05:26:54;;;;;;;1.30;1.30;;;;;;;;;;5010190;28;20187;-56
2023/04/01 05:29:20;;;;;;;1.40;1.30;;;;;;;;;;5001821;28;20228;-56
2023/04/01 05:31:46;;;;;;;1.00;1.00;;;;;;;;;;5002386;28;20320;-56
2023/04/01 05:34:12;;;;;;;1.40;1.30;;;;;;;;;;5003818;28;20277;-56
2023/04/01 05:36:38;;;;;;;1.70;1.60;;;;;;;;;;5007913;28;20204;-57
2023/04/01 05:39:04;;;;;;;1.50;1.40;;;;;;;;;;5003358;28;20646;-56
2023/04/01 05:41:30;;;;;;;2.80;1.37;;;;;;;;;;5014049;28;20185;-56
2023/04/01 05:43:56;;;;;;;1.30;1.30;;;;;;;;;;5006249;28;20183;-56
2023/04/01 05:46:22;;;;;;;1.70;1.60;;;;;;;;;;5005638;28;20189;-56
2023/04/01 05:48:48;;;;;;;3.47;1.73;;;;;;;;;;5004145;28;20209;-56
2023/04/01 05:51:15;;;;;;;1.63;1.37;;;;;;;;;;5005663;28;20184;-56
2023/04/01 05:53:41;;;;;;;1.67;1.40;;;;;;;;;;5015659;28;20174;-56
2023/04/01 05:56:09;;;;;;;1.47;1.37;;;;;;;;;;5012973;28;20193;-56
2023/04/01 05:58:35;;;;;;;1.83;1.50;;;;;;;;;;5013799;28;20543;-56
2023/04/01 06:01:02;;;;;;;2.30;2.10;;;;;;;;;;5010139;28;20712;-56
2023/04/01 06:03:28;;;;;;;1.57;1.40;;;;;;;;;;5013037;28;20297;-56
2023/04/01 06:05:54;;;;;;;1.70;1.60;;;;;;;;;;5008814;28;20766;-56
2023/04/01 06:08:20;;;;;;;1.67;1.57;;;;;;;;;;5009739;28;20601;-56
2023/04/01 06:10:53;;;;;;;1.53;1.43;;;;;;;;;;5009988;28;20779;-56
2023/04/01 06:13:31;;;;;;;1.70;1.60;;;;;;;;;;5014566;28;20556;-56
2023/04/01 06:16:07;;;;;;;1.90;1.80;;;;;;;;;;5008940;28;20177;-56
2023/04/01 06:18:45;;;;;;;2.30;1.80;;;;;;;;;;5004204;28;20182;-56
2023/04/01 06:21:21;;;;;;;1.77;1.67;;;;;;;;;;5009542;28;20240;-56
2023/04/01 06:24:00;;;;;;;2.13;1.90;;;;;;;;;;5007154;28;20245;-56
2023/04/01 06:26:31;;;;;;;2.07;1.73;;;;;;;;;;5006145;28;20284;-56
2023/04/01 06:29:04;;;;;;;1.90;1.80;;;;;;;;;;5013598;28;20197;-56
2023/04/01 06:31:47;;;;;;;4.17;2.50;;;;;;;;;;5008379;28;20187;-56
2023/04/01 06:34:14;;;;;;;1.93;1.83;;;;;;;;;;5006308;28;20289;-56
2023/04/01 06:36:48;;;;;;;1.80;1.70;;;;;;;;;;5009948;28;20192;-56
2023/04/01 06:39:32;;;;;;;2.30;2.10;;;;;;;;;;5008364;28;20721;-56
2023/04/01 06:42:16;;;;;;;1.93;1.80;;;;;;;;;;5011025;28;20224;-56
2023/04/01 06:44:48;;;;;;;1.90;1.80;;;;;;;;;;5009259;28;20181;-56
2023/04/01 06:47:29;;;;;;;2.07;1.97;;;;;;;;;;5010105;28;20182;-56
2023/04/01 06:49:55;;;;;;;2.57;2.37;;;;;;;;;;5011169;28;20213;-56
2023/04/01 06:52:21;;;;;;;2.07;1.97;;;;;;;;;;5005395;28;20538;-56
2023/04/01 06:54:50;;;;;;;2.60;1.90;;;;;;;;;;5008456;28;20182;-56
2023/04/01 06:57:30;;;;;;;2.27;2.17;;;;;;;;;;5014379;28;20181;-56
2023/04/01 06:59:58;;;;;;;2.50;2.30;;;;;;;;;;5008700;28;20171;-56
2023/04/01 07:02:39;;;;;;;2.20;2.00;;;;;;;;;;5008842;28;20175;-56
2023/04/01 07:05:05;;;;;;;2.20;2.10;;;;;;;;;;5006232;28;20333;-56
2023/04/01 07:07:37;;;;;;;2.57;2.37;;;;;;;;;;5003442;28;20186;-56
2023/04/01 07:10:05;;;;;;;2.60;2.40;;;;;;;;;;4999982;28;21212;-56
2023/04/01 07:12:31;;;;;;;2.23;2.03;;;;;;;;;;5007366;28;20210;-56
2023/04/01 07:14:59;;;;;;;2.50;2.30;;;;;;;;;;5004295;28;20184;-56
2023/04/01 07:17:28;;;;;;;2.63;2.43;;;;;;;;;;5009717;28;20186;-56
2023/04/01 07:19:59;;;;;;;2.93;2.20;;;;;;;;;;5007390;28;20240;-56
2023/04/01 07:22:30;;;;;;;2.77;2.47;;;;;;;;;;5006222;28;20728;-56
2023/04/01 07:24:57;;;;;;;5.30;2.37;;;;;;;;;;5006695;28;20193;-56
2023/04/01 07:27:24;;;;;;;2.60;2.40;;;;;;;;;;5008690;28;20170;-56
2023/04/01 07:29:50;;;;;;;2.87;2.63;;;;;;;;;;4999811;28;20195;-56
2023/04/01 07:32:16;;;;;;;2.77;2.57;;;;;;;;;;5004894;28;20209;-56
2023/04/01 07:35:00;;;;;;;4.67;2.57;;;;;;;;;;5009321;28;20171;-56
2023/04/01 07:37:34;;;;;;;2.50;2.30;;;;;;;;;;5007495;28;20550;-56
2023/04/01 07:40:18;;;;;;;4.10;2.70;;;;;;;;;;5007677;28;20244;-56
2023/04/01 07:42:54;;;;;;;2.60;2.40;;;;;;;;;;5008012;28;20748;-56
2023/04/01 07:45:35;;;;;;;2.53;2.33;;;;;;;;;;5004131;28;20562;-56
2023/04/01 07:48:20;;;;;;;2.60;2.40;;;;;;;;;;5005483;28;20193;-56
2023/04/01 07:50:55;;;;;;;2.67;2.47;;;;;;;;;;5006047;28;20208;-56
2023/04/01 07:53:27;;;;;;;3.07;2.83;;;;;;;;;;5013882;28;20593;-56
2023/04/01 07:56:04;;;;;;;3.47;3.17;;;;;;;;;;5004789;28;20210;-55
2023/04/01 07:58:36;;;;;;;3.40;3.10;;;;;;;;;;5009411;28;21079;-56
2023/04/01 08:01:21;;;;;;;5.37;3.93;;;;;;;;;;5001248;28;20546;-56
2023/04/01 08:03:53;;;;;;;3.90;3.50;;;;;;;;;;5009758;28;20546;-55
2023/04/01 08:06:31;;;;;;;3.97;3.50;;;;;;;;;;5001925;28;20667;-55
2023/04/01 08:09:07;;;;;;;3.80;3.50;;;;;;;;;;5003552;28;20233;-56
2023/04/01 08:11:42;;;;;;;4.33;3.93;;;;;;;;;;5001121;28;20551;-56
2023/04/01 08:14:17;;;;;;;4.13;3.77;;;;;;;;;;5003650;28;20178;-55
2023/04/01 08:16:52;;;;;;;4.77;4.37;;;;;;;;;;5000702;28;20623;-56
2023/04/01 08:19:37;;;;;;;5.13;4.47;;;;;;;;;;5003299;28;20182;-55
2023/04/01 08:22:09;;;;;;;4.90;4.40;;;;;;;;;;4996928;28;20606;-55
2023/04/01 08:24:38;;;;;;;7.03;4.80;;;;;;;;;;4995889;28;20190;-56
2023/04/01 08:27:10;;;;;;;5.60;4.90;;;;;;;;;;5003307;28;20268;-56
2023/04/01 08:29:46;;;;;;;5.63;5.10;;;;;;;;;;5003895;28;20241;-56
2023/04/01 08:32:42;;;;;;;5.67;5.10;;;;;;;;;;5008215;28;20304;-56
2023/04/01 08:35:28;;;;;;;6.63;5.60;;;;;;;;;;5000000;28;20190;-56
2023/04/01 08:37:55;;;;;;;7.20;4.90;;;;;;;;;;5007416;28;20277;-56
2023/04/01 08:40:27;;;;;;;5.87;5.33;;;;;;;;;;5001525;28;20182;-55
2023/04/01 08:43:29;;;;;;;5.53;4.93;;;;;;;;;;4998629;28;20213;-55
2023/04/01 08:46:00;;;;;;;5.63;4.87;;;;;;;;;;4999524;28;20198;-56
2023/04/01 08:48:50;;;;;;;5.77;5.00;;;;;;;;;;5000574;28;20194;-56
2023/04/01 08:51:26;;;;;;;5.93;5.40;;;;;;;;;;4999726;28;20194;-55
2023/04/01 08:53:58;;;;;;;5.27;4.70;;;;;;;;;;5005285;28;20181;-55
2023/04/01 08:56:27;;;;;;;4.77;4.37;;;;;;;;;;5005212;28;20174;-55
2023/04/01 08:59:10;;;;;;;5.70;4.27;;;;;;;;;;5004795;28;20583;-56
2023/04/01 09:01:56;;;;;;;5.60;4.70;;;;;;;;;;5004045;28;20190;-56
2023/04/01 09:04:42;;;;;;;5.27;4.60;;;;;;;;;;5000555;28;20182;-55
2023/04/01 09:07:14;;;;;;;4.93;4.50;;;;;;;;;;5005366;28;20189;-55
2023/04/01 09:09:43;;;;;;;4.10;3.70;;;;;;;;;;4998170;28;20214;-55
2023/04/01 09:12:15;;;;;;;4.93;4.50;;;;;;;;;;5007415;28;20206;-55
2023/04/01 09:14:50;;;;;;;5.00;4.50;;;;;;;;;;5004684;28;20182;-55
2023/04/01 09:17:35;;;;;;;5.50;4.77;;;;;;;;;;5005210;28;20511;-55
2023/04/01 09:20:21;;;;;;;5.80;4.97;;;;;;;;;;5004713;28;20190;-54
2023/04/01 09:23:06;;;;;;;4.33;4.03;;;;;;;;;;5004707;28;20198;-54
2023/04/01 09:25:47;;;;;;;5.13;4.70;;;;;;;;;;4998559;28;20292;-54
2023/04/01 09:28:20;;;;;;;5.20;4.70;;;;;;;;;;5006383;28;20186;-54
2023/04/01 09:30:59;;;;;;;5.23;4.83;;;;;;;;;;5005401;28;20753;-55
2023/04/01 09:33:34;;;;;;;5.43;4.93;;;;;;;;;;5005722;28;20181;-54
2023/04/01 09:36:12;;;;;;;5.83;5.33;;;;;;;;;;5003197;28;20186;-54
2023/04/01 09:38:41;;;;;;;6.00;5.40;;;;;;;;;;5005145;28;20256;-54
2023/04/01 09:41:19;;;;;;;5.67;5.17;;;;;;;;;;5004919;28;20186;-54
2023/04/01 09:44:01;;;;;;;5.57;4.67;;;;;;;;;;5007177;28;20224;-54
2023/04/01 09:46:33;;;;;;;8.13;4.97;;;;;;;;;;5004958;28;20206;-54
2023/04/01 09:49:11;;;;;;;5.70;5.03;;;;;;;;;;5007225;28;20202;-54
2023/04/01 09:51:37;;;;;;;6.10;5.53;;;;;;;;;;5003771;28;20240;-54
2023/04/01 09:54:03;;;;;;;6.87;6.17;;;;;;;;;;5004706;28;20210;-54
2023/04/01 09:56:32;;;;;;;6.70;5.20;;;;;;;;;;5006611;28;20597;-54
2023/04/01 09:59:08;;;;;;;5.73;5.10;;;;;;;;;;5002323;28;20190;-54
2023/04/01 10:01:43;;;;;;;6.00;5.37;;;;;;;;;;5006226;28;20273;-54
2023/04/01 10:04:15;;;;;;;6.47;5.87;;;;;;;;;;5005065;28;20182;-54
2023/04/01 10:06:48;;;;;;;6.10;5.50;;;;;;;;;;5009301;28;20635;-54
2023/04/01 10:09:26;;;;;;;6.67;5.97;;;;;;;;;;5002913;28;20194;-54
2023/04/01 10:11:55;;;;;;;6.40;5.80;;;;;;;;;;5001518;28;20225;-54
2023/04/01 10:14:21;;;;;;;7.43;6.07;;;;;;;;;;5005798;28;20204;-54
2023/04/01 10:16:51;;;;;;;7.30;6.00;;;;;;;;;;5002715;28;20183;-54
2023/04/01 10:19:17;;;;;;;7.20;6.50;;;;;;;;;;4999126;28;20248;-54
2023/04/01 10:22:00;;;;;;;7.60;6.80;;;;;;;;;;5004913;28;20226;-54
2023/04/01 10:24:29;;;;;;;7.63;6.57;;;;;;;;;;5002682;28;20182;-55
2023/04/01 10:27:14;;;;;;;7.77;6.97;;;;;;;;;;5005632;28;20182;-54
2023/04/01 10:29:59;;;;;;;8.87;6.90;;;;;;;;;;5004084;28;20254;-54
2023/04/01 10:32:40;;;;;;;7.70;6.33;;;;;;;;;;5006170;28;20634;-54
2023/04/01 10:35:24;;;;;;;6.83;6.17;;;;;;;;;;5007917;28;20622;-54
2023/04/01 10:37:53;;;;;;;8.43;7.47;;;;;;;;;;5007544;28;20256;-54
2023/04/01 10:40:38;;;;;;;7.60;6.87;;;;;;;;;;5001326;28;20183;-54
2023/04/01 10:43:04;;;;;;;9.83;6.47;;;;;;;;;;4998216;28;20672;-54
2023/04/01 10:45:46;;;;;;;7.53;6.83;;;;;;;;;;5006881;28;20284;-54
2023/04/01 10:48:15;;;;;;;7.97;7.23;;;;;;;;;;5001223;28;20178;-54
2023/04/01 10:51:00;;;;;;;9.57;7.70;;;;;;;;;;5000718;28;20217;-54
2023/04/01 10:53:29;;;;;;;8.70;7.43;;;;;;;;;;4999233;28;20171;-54
2023/04/01 10:56:01;;;;;;;7.23;6.53;;;;;;;;;;5000404;28;20190;-54
2023/04/01 10:58:46;;;;;;;7.90;7.20;;;;;;;;;;5003372;28;20174;-54
2023/04/01 11:01:25;;;;;;;8.17;7.37;;;;;;;;;;5006444;28;20182;-55
2023/04/01 11:04:10;;;;;;;9.40;8.50;;;;;;;;;;5007700;28;20186;-55
2023/04/01 11:06:41;;;;;;;10.70;9.10;;;;;;;;;;4999506;28;20234;-55
2023/04/01 11:09:26;;;;;;;10.13;8.70;;;;;;;;;;5007860;28;20241;-55
2023/04/01 11:12:05;;;;;;;10.40;8.77;;;;;;;;;;5003195;28;20269;-54
2023/04/01 11:14:37;;;;;;;8.70;7.87;;;;;;;;;;5002946;28;20182;-54
2023/04/01 11:17:28;;;;;;;9.00;8.13;;;;;;;;;;4999842;28;20179;-54
2023/04/01 11:20:12;;;;;;;9.73;8.17;;;;;;;;;;5001947;28;20237;-54
2023/04/01 11:22:41;;;;;;;8.90;8.00;;;;;;;;;;5002791;28;20196;-54
2023/04/01 11:25:12;;;;;;;8.13;7.33;;;;;;;;;;5003391;28;20207;-54
2023/04/01 11:27:57;;;;;;;8.87;7.47;;;;;;;;;;5007819;28;20542;-54
2023/04/01 11:30:23;;;;;;;9.40;8.40;;;;;;;;;;5006809;28;20194;-54
2023/04/01 11:33:02;;;;;;;8.10;7.30;;;;;;;;;;5007583;28;20628;-54
2023/04/01 11:35:28;;;;;;;8.80;7.97;;;;;;;;;;5006089;28;20186;-55
2023/04/01 11:38:06;;;;;;;8.53;7.83;;;;;;;;;;5002309;28;20182;-54
2023/04/01 11:40:46;;;;;;;8.27;7.47;;;;;;;;;;5002029;28;20185;-54
2023/04/01 11:43:21;;;;;;;7.80;7.00;;;;;;;;;;5003379;28;20615;-54
2023/04/01 11:45:47;;;;;;;8.87;8.00;;;;;;;;;;5004586;28;20269;-54
2023/04/01 11:48:23;;;;;;;8.80;7.90;;;;;;;;;;5008723;28;20221;-54
2023/04/01 11:51:09;;;;;;;8.50;7.63;;;;;;;;;;5007549;28;20202;-55
2023/04/01 11:53:54;;;;;;;8.40;7.57;;;;;;;;;;5001743;28;20647;-54
2023/04/01 11:56:29;;;;;;;8.93;8.03;;;;;;;;;;5004639;28;20175;-55
2023/04/01 11:58:55;;;;;;;8.60;7.77;;;;;;;;;;5005773;28;20254;-55
2023/04/01 12:01:30;;;;;;;8.20;7.50;;;;;;;;;;5008045;28;20182;-55
2023/04/01 12:04:15;;;;;;;9.53;7.43;;;;;;;;;;5004864;28;20562;-55
2023/04/01 12:06:41;;;;;;;9.93;7.17;;;;;;;;;;4999224;28;20432;-55
2023/04/01 12:09:18;;;;;;;7.67;6.97;;;;;;;;;;5002272;28;20214;-54
2023/04/01 12:11:47;;;;;;;8.00;7.23;;;;;;;;;;5003355;28;20260;-54
2023/04/01 12:14:28;;;;;;;7.87;7.07;;;;;;;;;;5005356;28;20179;-54
2023/04/01 12:17:04;;;;;;;8.83;7.00;;;;;;;;;;5005461;28;20199;-54
2023/04/01 12:19:40;;;;;;;7.23;6.53;;;;;;;;;;5006100;28;20209;-54
2023/04/01 12:22:18;;;;;;;7.33;6.63;;;;;;;;;;5003965;28;20218;-54
2023/04/01 12:24:50;;;;;;;7.30;6.60;;;;;;;;;;4999045;28;20186;-53
2023/04/01 12:27:28;;;;;;;6.40;5.80;;;;;;;;;;5001910;28;20612;-54
2023/04/01 12:30:00;;;;;;;6.60;6.00;;;;;;;;;;5004970;28;20206;-54
2023/04/01 12:32:39;;;;;;;7.13;6.43;;;;;;;;;;5001241;28;20178;-54
2023/04/01 12:35:06;;;;;;;6.67;6.07;;;;;;;;;;5007723;28;20186;-54
2023/04/01 12:37:51;;;;;;;6.10;5.60;;;;;;;;;;5003236;28;20473;-53
2023/04/01 12:40:35;;;;;;;7.40;6.57;;;;;;;;;;5000176;28;20174;-54
2023/04/01 12:43:04;;;;;;;6.20;5.60;;;;;;;;;;5000318;28;20721;-54
2023/04/01 12:45:49;;;;;;;6.70;6.10;;;;;;;;;;5002338;28;20190;-54
2023/04/01 12:48:24;;;;;;;5.43;4.93;;;;;;;;;;5010308;28;20674;-54
2023/04/01 12:50:56;;;;;;;6.93;6.23;;;;;;;;;;5003736;28;20215;-54
2023/04/01 12:53:36;;;;;;;6.13;5.63;;;;;;;;;;5001875;28;20188;-54
2023/04/01 12:56:10;;;;;;;6.53;5.93;;;;;;;;;;5005796;28;20174;-54
2023/04/01 12:58:46;;;;;;;6.60;5.87;;;;;;;;;;5000941;28;20662;-54
2023/04/01 13:01:18;;;;;;;6.43;5.83;;;;;;;;;;5002845;28;20483;-54
2023/04/01 13:04:09;;;;;;;6.53;5.83;;;;;;;;;;5004331;28;20174;-54
2023/04/01 13:06:42;;;;;;;6.33;5.73;;;;;;;;;;5000831;28;20211;-55
2023/04/01 13:09:16;;;;;;;7.33;6.63;;;;;;;;;;5006073;28;20201;-54
2023/04/01 13:11:51;;;;;;;6.43;5.83;;;;;;;;;;5005360;28;20654;-54
2023/04/01 13:14:24;;;;;;;7.10;6.40;;;;;;;;;;5006178;28;20182;-54
2023/04/01 13:16:56;;;;;;;6.53;5.73;;;;;;;;;;5008995;28;20673;-55
2023/04/01 13:19:35;;;;;;;7.70;5.93;;;;;;;;;;5004972;28;20190;-54
2023/04/01 13:22:07;;;;;;;8.93;6.70;;;;;;;;;;5003802;28;20225;-54
2023/04/01 13:24:48;;;;;;;8.13;7.43;;;;;;;;;;5004127;28;21141;-55
2023/04/01 13:27:19;;;;;;;7.77;6.70;;;;;;;;;;5005517;28;20179;-55
2023/04/01 13:29:45;;;;;;;8.10;6.40;;;;;;;;;;4998757;28;20202;-55
2023/04/01 13:32:30;;;;;;;6.50;5.77;;;;;;;;;;5002951;28;20189;-55
2023/04/01 13:35:22;;;;;;;7.90;6.00;;;;;;;;;;5009214;28;20179;-55
2023/04/01 13:37:48;;;;;;;6.30;5.70;;;;;;;;;;5004013;28;20561;-55
2023/04/01 13:40:15;;;;;;;7.03;5.23;;;;;;;;;;5000398;28;20232;-55
2023/04/01 13:42:45;;;;;;;6.13;5.53;;;;;;;;;;5006077;28;20199;-55
2023/04/01 13:45:11;;;;;;;5.80;5.20;;;;;;;;;;5001349;28;20564;-55
2023/04/01 13:47:50;;;;;;;5.80;5.30;;;;;;;;;;4994733;28;20190;-55
2023/04/01 13:50:16;;;;;;;5.90;5.30;;;;;;;;;;5001396;28;20234;-56
2023/04/01 13:53:00;;;;;;;8.80;5.87;;;;;;;;;;5003256;28;20189;-56
2023/04/01 13:55:31;;;;;;;6.93;6.23;;;;;;;;;;5002782;28;20514;-55
2023/04/01 13:58:16;;;;;;;6.17;4.83;;;;;;;;;;5003534;28;20178;-55
2023/04/01 14:00:56;;;;;;;5.23;4.73;;;;;;;;;;5000239;28;20779;-55
2023/04/01 14:03:28;;;;;;;5.80;5.20;;;;;;;;;;5003165;28;20189;-55
2023/04/01 14:06:12;;;;;;;5.27;4.67;;;;;;;;;;5003561;28;20202;-55
2023/04/01 14:08:38;;;;;;;6.63;4.93;;;;;;;;;;5001240;28;20182;-55
2023/04/01 14:11:04;;;;;;;5.60;5.10;;;;;;;;;;5001547;28;20225;-55
2023/04/01 14:13:35;;;;;;;6.40;5.80;;;;;;;;;;5007286;28;20676;-55
2023/04/01 14:16:21;;;;;;;6.23;5.63;;;;;;;;;;5003376;28;20642;-55
2023/04/01 14:18:59;;;;;;;6.03;5.53;;;;;;;;;;4998675;28;20187;-55
2023/04/01 14:21:44;;;;;;;6.57;5.97;;;;;;;;;;5003190;28;20227;-55
2023/04/01 14:24:35;;;;;;;5.70;5.13;;;;;;;;;;5002036;28;20175;-54
2023/04/01 14:27:02;;;;;;;5.77;5.27;;;;;;;;;;5002261;28;20182;-54
2023/04/01 14:29:40;;;;;;;5.80;5.20;;;;;;;;;;5003182;28;20210;-55
2023/04/01 14:32:10;;;;;;;5.13;4.63;;;;;;;;;;4998075;28;20216;-54
2023/04/01 14:34:55;;;;;;;5.53;5.03;;;;;;;;;;5000544;28;20693;-55
2023/04/01 14:37:36;;;;;;;6.10;5.50;;;;;;;;;;5005641;28;20186;-54
2023/04/01 14:40:23;;;;;;;5.07;4.67;;;;;;;;;;5002783;28;20248;-55
2023/04/01 14:43:11;;;;;;;5.43;4.87;;;;;;;;;;5010299;28;20187;-55
2023/04/01 14:45:49;;;;;;;5.40;4.90;;;;;;;;;;5008897;28;20194;-54
2023/04/01 14:48:33;;;;;;;5.43;4.93;;;;;;;;;;5005229;28;20178;-55
2023/04/01 14:51:17;;;;;;;7.20;5.40;;;;;;;;;;5004124;28;20724;-54
2023/04/01 14:53:45;;;;;;;5.80;5.20;;;;;;;;;;5010343;28;21436;-54
2023/04/01 14:56:12;;;;;;;5.90;5.40;;;;;;;;;;5011310;28;20228;-56
2023/04/01 14:58:44;;;;;;;6.10;5.60;;;;;;;;;;5004356;28;20185;-56
2023/04/01 15:01:17;;;;;;;5.23;4.73;;;;;;;;;;5007893;28;20662;-56
2023/04/01 15:03:46;;;;;;;5.37;4.83;;;;;;;;;;5003683;28;20219;-56
2023/04/01 15:06:28;;;;;;;6.20;5.60;;;;;;;;;;5010332;28;20189;-56
2023/04/01 15:09:04;;;;;;;5.33;4.80;;;;;;;;;;5007119;28;20341;-55
2023/04/01 15:11:50;;;;;;;8.10;5.10;;;;;;;;;;5008185;28;20220;-56
2023/04/01 15:14:24;;;;;;;9.10;5.33;;;;;;;;;;4998171;28;20768;-55